createdAt,value
2018-06-11T00:01:03.867Z,20.03
2018-06-11T00:03:35.108Z,20.00
2018-06-11T00:06:06.544Z,20.06
2018-06-11T00:08:37.613Z,20.07
2018-06-11T00:11:08.699Z,20.03
2018-06-11T00:13:40.008Z,19.88
2018-06-11T00:16:11.520Z,19.88
2018-06-11T00:18:42.682Z,19.83
2018-06-11T00:21:14.065Z,19.68
2018-06-11T00:23:45.328Z,19.75
2018-06-11T00:26:16.858Z,19.79
2018-06-11T00:28:47.915Z,19.78
2018-06-11T00:31:19.199Z,19.82
2018-06-11T00:33:50.361Z,19.49
2018-06-11T00:36:21.574Z,19.64
2018-06-11T00:38:52.570Z,19.71
2018-06-11T00:41:23.821Z,19.68
2018-06-11T00:43:54.999Z,19.52
2018-06-11T00:46:26.267Z,19.64
2018-06-11T00:49:01.249Z,19.50
2018-06-11T00:51:32.885Z,19.55
2018-06-11T00:54:04.093Z,19.64
2018-06-11T00:56:35.277Z,19.44
2018-06-11T00:59:06.468Z,19.44
2018-06-11T01:01:37.741Z,19.45
2018-06-11T01:04:08.861Z,19.45
2018-06-11T01:06:40.236Z,19.45
2018-06-11T01:09:11.549Z,19.51
2018-06-11T01:11:42.965Z,19.32
2018-06-11T01:14:14.240Z,19.07
2018-06-11T01:16:45.869Z,18.75
2018-06-11T01:19:17.055Z,18.88
2018-06-11T01:21:48.184Z,19.11
2018-06-11T01:24:19.271Z,19.21
2018-06-11T01:26:50.648Z,19.16
2018-06-11T01:29:25.166Z,19.12
2018-06-11T01:31:56.516Z,19.23
2018-06-11T01:34:27.956Z,19.38
2018-06-11T01:37:12.303Z,19.11
2018-06-11T01:39:43.280Z,18.84
2018-06-11T01:42:14.527Z,18.84
2018-06-11T01:44:49.947Z,18.90
2018-06-11T01:47:21.395Z,18.99
2018-06-11T01:49:52.461Z,18.95
2018-06-11T01:52:23.623Z,18.96
2018-06-11T01:54:55.675Z,18.90
2018-06-11T01:57:27.012Z,18.97
2018-06-11T01:59:58.259Z,18.86
2018-06-11T02:02:29.695Z,18.90
2018-06-11T02:05:00.952Z,19.03
2018-06-11T02:07:32.149Z,18.95
2018-06-11T02:10:03.336Z,18.90
2018-06-11T02:12:34.588Z,18.73
2018-06-11T02:15:05.813Z,18.79
2018-06-11T02:17:37.603Z,18.58
2018-06-11T02:20:08.843Z,18.44
2018-06-11T02:22:39.896Z,18.67
2018-06-11T02:25:12.273Z,18.63
2018-06-11T02:27:43.588Z,18.61
2018-06-11T02:30:14.645Z,18.53
2018-06-11T02:32:45.692Z,18.72
2018-06-11T02:35:16.500Z,18.74
2018-06-11T02:37:47.332Z,18.81
2018-06-11T02:40:18.392Z,18.79
2018-06-11T02:42:49.387Z,18.67
2018-06-11T02:45:20.672Z,18.67
2018-06-11T02:47:52.043Z,18.62
2018-06-11T02:50:23.312Z,18.62
2018-06-11T02:52:54.535Z,18.60
2018-06-11T02:55:25.596Z,18.77
2018-06-11T02:58:05.000Z,18.66
2018-06-11T03:00:36.234Z,18.74
2018-06-11T03:03:07.769Z,18.67
2018-06-11T03:05:38.820Z,18.81
2018-06-11T03:08:09.906Z,18.64
2018-06-11T03:13:41.792Z,18.73
2018-06-11T03:16:13.103Z,18.60
2018-06-11T03:18:44.965Z,18.73
2018-06-11T03:21:16.164Z,18.59
2018-06-11T03:23:47.585Z,18.64
2018-06-11T03:26:18.853Z,18.76
2018-06-11T03:28:50.298Z,18.74
2018-06-11T03:31:21.428Z,18.87
2018-06-11T03:33:52.405Z,18.84
2018-06-11T03:36:23.256Z,18.55
2018-06-11T03:38:54.545Z,18.86
2018-06-11T03:41:25.650Z,18.80
2018-06-11T03:43:56.769Z,18.79
2018-06-11T03:46:38.788Z,18.88
2018-06-11T03:49:10.251Z,18.83
2018-06-11T03:51:41.415Z,18.84
2018-06-11T03:54:12.519Z,18.87
2018-06-11T03:56:43.736Z,18.87
2018-06-11T03:59:15.029Z,18.72
2018-06-11T04:01:46.168Z,18.80
2018-06-11T04:04:17.619Z,18.83
2018-06-11T04:06:48.708Z,18.80
2018-06-11T04:09:19.994Z,18.70
2018-06-11T04:11:51.092Z,18.75
2018-06-11T04:17:19.468Z,18.90
2018-06-11T04:19:51.516Z,18.95
2018-06-11T04:22:22.627Z,19.04
2018-06-11T04:24:53.887Z,19.02
2018-06-11T04:27:25.070Z,19.03
2018-06-11T04:29:56.272Z,19.04
2018-06-11T04:32:27.392Z,18.94
2018-06-11T04:34:58.412Z,18.80
2018-06-11T04:37:29.691Z,18.95
2018-06-11T04:40:01.106Z,18.98
2018-06-11T04:42:32.253Z,19.09
2018-06-11T04:45:03.716Z,19.11
2018-06-11T04:47:34.964Z,18.98
2018-06-11T04:50:06.104Z,19.03
2018-06-11T04:52:37.670Z,18.83
2018-06-11T04:55:08.587Z,19.18
2018-06-11T04:57:39.630Z,18.92
2018-06-11T05:00:11.045Z,19.21
2018-06-11T05:02:42.227Z,19.42
2018-06-11T05:05:13.553Z,19.53
2018-06-11T05:07:44.753Z,19.60
2018-06-11T05:10:15.597Z,19.80
2018-06-11T05:12:46.404Z,19.61
2018-06-11T05:15:17.284Z,19.73
2018-06-11T05:17:48.333Z,19.78
2018-06-11T05:20:19.437Z,19.87
2018-06-11T05:23:10.197Z,19.81
2018-06-11T05:25:41.496Z,19.84
2018-06-11T05:28:12.351Z,19.59
2018-06-11T05:30:43.483Z,19.51
2018-06-11T05:33:14.304Z,19.78
2018-06-11T05:35:45.655Z,19.75
2018-06-11T05:38:16.512Z,19.85
2018-06-11T05:40:47.381Z,19.90
2018-06-11T05:43:25.355Z,19.86
2018-06-11T05:45:56.551Z,19.96
2018-06-11T05:48:27.688Z,19.91
2018-06-11T05:50:58.927Z,19.82
2018-06-11T05:53:30.195Z,20.02
2018-06-11T05:56:01.262Z,20.02
2018-06-11T05:58:32.108Z,19.94
2018-06-11T06:01:03.292Z,19.90
2018-06-11T06:03:34.479Z,19.95
2018-06-11T06:06:05.637Z,19.89
2018-06-11T06:08:36.492Z,19.90
2018-06-11T06:11:07.664Z,19.93
2018-06-11T06:13:38.847Z,20.00
2018-06-11T06:16:09.967Z,20.24
2018-06-11T06:18:40.891Z,20.14
2018-06-11T06:21:11.936Z,20.29
2018-06-11T06:23:42.897Z,20.41
2018-06-11T06:26:14.053Z,20.25
2018-06-11T06:28:44.908Z,20.24
2018-06-11T06:31:20.780Z,20.30
2018-06-11T06:33:54.243Z,19.97
2018-06-11T06:36:25.934Z,19.82
2018-06-11T06:39:02.268Z,20.08
2018-06-11T06:41:33.628Z,20.15
2018-06-11T06:44:04.863Z,20.26
2018-06-11T06:46:35.990Z,20.33
2018-06-11T06:49:07.222Z,20.37
2018-06-11T06:51:38.561Z,20.37
2018-06-11T06:54:14.009Z,20.38
2018-06-11T06:56:45.173Z,20.31
2018-06-11T06:59:16.008Z,20.04
2018-06-11T07:01:47.143Z,20.03
2018-06-11T07:04:17.969Z,20.12
2018-06-11T07:06:49.426Z,20.60
2018-06-11T07:09:21.983Z,20.60
2018-06-11T07:11:53.061Z,20.44
2018-06-11T07:14:24.239Z,20.57
2018-06-11T07:16:55.272Z,20.60
2018-06-11T07:19:26.487Z,20.69
2018-06-11T07:22:00.336Z,20.73
2018-06-11T07:24:34.893Z,20.64
2018-06-11T07:27:10.339Z,20.65
2018-06-11T07:29:43.784Z,20.71
2018-06-11T07:32:15.467Z,20.53
2018-06-11T07:34:46.454Z,20.68
2018-06-11T07:37:17.873Z,20.64
2018-06-11T07:39:48.968Z,20.54
2018-06-11T07:42:20.349Z,20.30
2018-06-11T07:44:51.411Z,20.40
2018-06-11T07:47:23.188Z,20.67
2018-06-11T07:49:54.408Z,20.84
2018-06-11T07:52:25.642Z,20.66
2018-06-11T07:54:56.963Z,20.68
2018-06-11T07:57:28.586Z,20.85
2018-06-11T08:00:01.411Z,20.85
2018-06-11T08:02:33.047Z,20.86
2018-06-11T08:05:05.115Z,20.96
2018-06-11T08:07:36.443Z,20.83
2018-06-11T08:10:07.733Z,20.93
2018-06-11T08:12:39.112Z,21.03
2018-06-11T08:15:10.440Z,21.16
2018-06-11T08:17:41.790Z,21.22
2018-06-11T08:20:13.301Z,21.22
2018-06-11T08:22:44.808Z,21.26
2018-06-11T08:25:15.904Z,21.12
2018-06-11T08:27:47.827Z,21.25
2018-06-11T08:30:19.288Z,21.27
2018-06-11T08:32:50.697Z,21.39
2018-06-11T08:35:21.559Z,20.96
2018-06-11T08:37:52.633Z,21.50
2018-06-11T08:40:23.438Z,21.41
2018-06-11T08:42:54.445Z,21.57
2018-06-11T08:45:25.577Z,21.74
2018-06-11T08:47:56.800Z,21.65
2018-06-11T08:50:27.903Z,21.43
2018-06-11T08:53:00.841Z,21.79
2018-06-11T08:55:33.773Z,21.75
2018-06-11T08:58:05.985Z,21.59
2018-06-11T09:00:41.492Z,21.59
2018-06-11T09:03:12.708Z,21.54
2018-06-11T09:05:43.997Z,21.41
2018-06-11T09:08:15.351Z,21.34
2018-06-11T09:10:46.605Z,21.55
2018-06-11T09:16:14.796Z,21.79
2018-06-11T09:18:46.376Z,21.53
2018-06-11T09:21:17.697Z,21.45
2018-06-11T09:23:49.202Z,21.46
2018-06-11T09:26:22.536Z,21.43
2018-06-11T09:28:53.703Z,21.43
2018-06-11T09:31:24.832Z,21.47
2018-06-11T09:33:56.292Z,21.30
2018-06-11T09:36:27.859Z,21.22
2018-06-11T09:38:59.247Z,21.39
2018-06-11T09:41:32.140Z,21.52
2018-06-11T09:44:03.406Z,21.48
2018-06-11T09:46:34.669Z,21.45
2018-06-11T09:49:06.467Z,21.22
2018-06-11T09:51:37.701Z,21.27
2018-06-11T09:54:09.176Z,21.12
2018-06-11T09:56:45.791Z,21.13
2018-06-11T09:59:16.822Z,21.29
2018-06-11T10:01:47.904Z,21.44
2018-06-11T10:04:19.508Z,21.54
2018-06-11T10:06:50.585Z,21.62
2018-06-11T10:09:21.626Z,21.65
2018-06-11T10:11:53.196Z,21.40
2018-06-11T10:14:24.610Z,21.46
2018-06-11T10:16:55.861Z,21.27
2018-06-11T10:19:27.160Z,21.32
2018-06-11T10:21:58.356Z,21.40
2018-06-11T10:24:29.640Z,21.14
2018-06-11T10:27:00.477Z,21.12
2018-06-11T10:29:31.364Z,21.26
2018-06-11T10:32:02.516Z,21.23
2018-06-11T10:34:33.726Z,21.44
2018-06-11T10:37:22.802Z,21.57
2018-06-11T10:39:54.015Z,21.75
2018-06-11T10:42:25.414Z,21.61
2018-06-11T10:44:56.627Z,21.51
2018-06-11T10:47:27.719Z,21.67
2018-06-11T10:49:59.365Z,21.52
2018-06-11T10:52:30.395Z,21.69
2018-06-11T10:55:01.877Z,22.05
2018-06-11T10:57:33.011Z,21.82
2018-06-11T11:00:04.188Z,21.95
2018-06-11T11:02:35.367Z,22.10
2018-06-11T11:05:41.856Z,22.40
2018-06-11T11:08:13.430Z,22.60
2018-06-11T11:10:45.088Z,22.86
2018-06-11T11:13:20.247Z,22.66
2018-06-11T11:15:51.816Z,22.54
2018-06-11T11:18:23.095Z,22.59
2018-06-11T11:20:55.008Z,22.62
2018-06-11T11:23:26.452Z,22.85
2018-06-11T11:25:57.929Z,22.57
2018-06-11T11:28:29.227Z,22.47
2018-06-11T11:31:00.695Z,22.28
2018-06-11T11:33:32.192Z,22.39
2018-06-11T11:36:03.745Z,22.88
2018-06-11T11:38:35.135Z,23.02
2018-06-11T11:41:07.429Z,22.78
2018-06-11T11:43:38.499Z,22.84
2018-06-11T11:46:09.920Z,22.58
2018-06-11T11:48:40.939Z,22.47
2018-06-11T11:51:11.998Z,22.43
2018-06-11T11:53:43.525Z,22.76
2018-06-11T11:56:14.839Z,22.90
2018-06-11T11:58:46.047Z,22.87
2018-06-11T12:01:17.569Z,23.12
2018-06-11T12:03:48.536Z,23.26
2018-06-11T12:06:19.883Z,23.33
2018-06-11T12:08:50.703Z,23.35
2018-06-11T12:11:21.537Z,23.35
2018-06-11T12:13:52.678Z,23.62
2018-06-11T12:16:25.189Z,23.32
2018-06-11T12:18:56.232Z,23.38
2018-06-11T12:21:27.489Z,23.42
2018-06-11T12:23:58.548Z,23.42
2018-06-11T12:26:29.848Z,23.52
2018-06-11T12:29:01.008Z,24.07
2018-06-11T12:31:33.536Z,23.95
2018-06-11T12:34:04.689Z,24.07
2018-06-11T12:36:36.143Z,23.91
2018-06-11T12:39:09.007Z,23.44
2018-06-11T12:41:44.161Z,23.07
2018-06-11T12:44:15.415Z,22.74
2018-06-11T12:46:47.237Z,22.90
2018-06-11T12:49:22.903Z,23.06
2018-06-11T12:51:54.429Z,23.14
2018-06-11T12:54:25.528Z,23.04
2018-06-11T12:56:56.923Z,23.12
2018-06-11T12:59:28.228Z,23.11
2018-06-11T13:01:59.512Z,23.21
2018-06-11T13:04:30.688Z,23.05
2018-06-11T13:07:03.152Z,22.98
2018-06-11T13:09:34.017Z,22.98
2018-06-11T13:12:05.044Z,22.94
2018-06-11T13:14:35.975Z,22.82
2018-06-11T13:17:07.371Z,22.90
2018-06-11T13:19:38.224Z,22.91
2018-06-11T13:22:09.678Z,22.85
2018-06-11T13:24:41.126Z,22.88
2018-06-11T13:27:12.627Z,23.00
2018-06-11T13:29:43.791Z,22.83
2018-06-11T13:32:14.927Z,22.75
2018-06-11T13:34:46.230Z,22.56
2018-06-11T13:37:17.711Z,22.56
2018-06-11T13:39:48.808Z,22.65
2018-06-11T13:42:20.187Z,22.57
2018-06-11T13:44:52.208Z,22.50
2018-06-11T13:47:23.657Z,22.56
2018-06-11T13:49:54.722Z,22.57
2018-06-11T13:52:25.637Z,22.53
2018-06-11T13:54:56.980Z,22.41
2018-06-11T13:57:28.137Z,22.43
2018-06-11T13:59:58.978Z,22.62
2018-06-11T14:02:30.009Z,22.33
2018-06-11T14:05:01.219Z,22.31
2018-06-11T14:07:33.037Z,22.21
2018-06-11T14:10:04.244Z,21.99
2018-06-11T14:12:35.532Z,21.86
2018-06-11T14:15:06.668Z,21.89
2018-06-11T14:17:37.963Z,21.74
2018-06-11T14:20:09.205Z,21.77
2018-06-11T14:22:44.471Z,21.79
2018-06-11T14:25:16.239Z,21.72
2018-06-11T14:27:47.302Z,21.66
2018-06-11T14:30:33.321Z,21.77
2018-06-11T14:33:04.948Z,21.67
2018-06-11T14:35:38.804Z,21.52
2018-06-11T14:38:10.353Z,21.58
2018-06-11T14:40:41.220Z,21.75
2018-06-11T14:43:12.375Z,21.59
2018-06-11T14:45:43.484Z,21.55
2018-06-11T14:48:14.552Z,21.75
2018-06-11T14:50:45.893Z,21.88
2018-06-11T14:53:17.284Z,21.82
2018-06-11T14:55:48.469Z,22.13
2018-06-11T14:58:24.729Z,22.30
2018-06-11T15:00:55.816Z,22.51
2018-06-11T15:03:26.953Z,22.55
2018-06-11T15:05:59.845Z,22.54
2018-06-11T15:08:31.411Z,22.73
2018-06-11T15:11:02.880Z,22.35
2018-06-11T15:13:35.089Z,22.06
2018-06-11T15:16:06.240Z,21.86
2018-06-11T15:18:37.657Z,21.96
2018-06-11T15:21:08.641Z,22.06
2018-06-11T15:23:39.529Z,21.93
2018-06-11T15:26:12.113Z,22.04
2018-06-11T15:28:43.737Z,22.22
2018-06-11T15:31:15.170Z,22.21
2018-06-11T15:33:46.056Z,21.83
2018-06-11T15:36:16.989Z,21.79
2018-06-11T15:38:48.512Z,21.97
2018-06-11T15:41:19.373Z,22.30
2018-06-11T15:43:50.832Z,22.39
2018-06-11T15:49:16.912Z,22.68
2018-06-11T15:51:49.026Z,22.72
2018-06-11T15:54:20.232Z,23.05
2018-06-11T15:56:51.240Z,22.89
2018-06-11T15:59:22.108Z,22.36
2018-06-11T16:01:52.977Z,22.27
2018-06-11T16:04:24.013Z,22.10
2018-06-11T16:06:54.888Z,22.06
2018-06-11T16:09:26.080Z,22.04
2018-06-11T16:11:57.129Z,22.04
2018-06-11T16:14:28.436Z,22.04
2018-06-11T16:17:00.802Z,22.24
2018-06-11T16:22:09.969Z,21.95
2018-06-11T16:24:42.145Z,21.95
2018-06-11T16:27:13.620Z,21.84
2018-06-11T16:29:44.957Z,21.90
2018-06-11T16:32:16.920Z,21.90
2018-06-11T16:34:48.337Z,21.83
2018-06-11T16:37:19.392Z,21.72
2018-06-11T16:39:50.528Z,21.89
2018-06-11T16:42:21.708Z,21.87
2018-06-11T21:02:14.485Z,19.48
2018-06-11T21:04:45.649Z,19.54
2018-06-11T21:07:16.777Z,19.61
2018-06-11T21:09:47.867Z,19.73
2018-06-11T21:12:18.843Z,19.79
2018-06-11T21:14:49.808Z,19.73
2018-06-11T21:17:20.861Z,19.57
2018-06-11T21:19:51.840Z,19.57
2018-06-11T21:22:22.938Z,19.47
2018-06-11T21:24:53.958Z,19.53
2018-06-11T21:27:25.001Z,19.61
2018-06-11T21:29:55.986Z,19.68
2018-06-11T21:32:27.021Z,19.59
2018-06-11T21:34:57.962Z,19.45
2018-06-11T21:37:29.065Z,19.51
2018-06-11T21:40:02.298Z,19.58
2018-06-11T21:42:33.306Z,19.61
2018-06-11T21:45:04.584Z,19.51
2018-06-11T21:47:35.591Z,19.56
2018-06-11T21:50:08.306Z,19.48
2018-06-11T21:52:39.311Z,19.25
2018-06-11T21:55:10.354Z,19.20
2018-06-11T21:57:41.453Z,19.05
2018-06-11T22:00:13.141Z,19.10
2018-06-11T22:02:44.629Z,18.99
2018-06-11T22:05:15.741Z,18.85
2018-06-11T22:07:50.769Z,18.84
2018-06-11T22:10:24.489Z,18.63
2018-06-11T22:13:01.170Z,18.65
2018-06-11T22:15:36.853Z,18.59
2018-06-11T22:18:10.850Z,18.68
2018-06-11T22:20:44.411Z,18.54
2018-06-11T22:23:19.919Z,18.22
2018-06-11T22:25:54.256Z,18.39
2018-06-11T22:28:25.925Z,18.47
2018-06-11T22:31:00.610Z,18.39
2018-06-11T22:33:35.602Z,18.25
2018-06-11T22:36:06.858Z,17.97
2018-06-11T22:38:37.968Z,18.08
2018-06-11T22:41:09.071Z,18.17
2018-06-11T22:43:40.075Z,17.90
2018-06-11T22:46:11.227Z,17.85
2018-06-11T22:48:42.262Z,17.98
2018-06-11T22:51:13.581Z,17.90
2018-06-11T22:53:44.893Z,17.94
2018-06-11T22:56:15.961Z,17.67
2018-06-11T22:58:46.937Z,17.73
2018-06-11T23:01:17.838Z,17.62
2018-06-11T23:03:49.035Z,17.78
2018-06-11T23:06:19.948Z,17.77
2018-06-11T23:08:51.022Z,17.64
2018-06-11T23:11:22.093Z,17.67
2018-06-11T23:13:53.174Z,17.75
2018-06-11T23:16:24.219Z,17.63
2018-06-11T23:18:55.290Z,17.76
2018-06-11T23:21:26.280Z,17.56
2018-06-11T23:23:57.414Z,17.63
2018-06-11T23:26:28.789Z,17.32
2018-06-11T23:28:59.863Z,17.37
2018-06-11T23:31:30.800Z,17.51
2018-06-11T23:34:01.806Z,17.58
2018-06-11T23:36:32.801Z,17.51
2018-06-11T23:39:05.161Z,17.47
2018-06-11T23:41:36.140Z,17.50
2018-06-11T23:44:07.214Z,17.56
2018-06-11T23:46:38.341Z,17.58
2018-06-11T23:49:09.417Z,17.56
2018-06-11T23:51:40.402Z,17.54
2018-06-11T23:54:11.388Z,17.51
2018-06-11T23:56:42.415Z,17.50
2018-06-11T23:59:13.405Z,17.34
